CYGV

Havre St Pierre Airport

Havre St-Pierre, Quebec, Canada
METAR CYGV 251400Z AUTO 15009KT 9SM CLR 07/M03 A3063 RMK SLP375
Observed Flight Rules
Sep-25 @ 14:00 UTC (an hour ago) Visual Flight Rules
Wind Visibility Clouds
150° at 9 knots 9 miles
  • Clear skies
Temperatures Readings
Current 7°C / 45°F
Dewpoint -3°C / 27°F
Humidity 49%
Altimeter 30.63" Hg
Pressure 1037.5 hPa
Elevation 33
METAR CYGV 251400Z AUTO 15009KT 9SM CLR 07/M03 A3063 RMK SLP375
Observed Flight Rules
Sep-25 @ 14:00 UTC
(an hour ago)
VFR
Wind Visibility
150° at 9 knots 9 miles
Clouds
  • Clear skies
Temperature Dewpoint
7°C / 45°F -3°C / 27°F
Humidity Altimeter Pressure
49% 30.63" Hg 1037.5 hPa